Terminal Aerodrome Forecast
Issued by NWS

Home | Current Version | Previous Version | Text Only | Print | Product List | Glossary On
Versions: 1 2 3 4 5 6 7 8 9 10 11 12 13 14 15
958
FTUS41 KILN 242333
TAFLUK
TAF
KLUK 242333Z 2500/2524 00000KT P6SM SCT250
     FM250700 00000KT 3SM BR SCT250
      TEMPO 2508/2511 1SM BR
     FM251100 00000KT P6SM SCT250
     FM251700 14004KT P6SM FEW060 BKN250=

USA.gov is the U.S. government's official web portal to all federal, state and local government web resources and services.